Williams, OR (97544)

3:35 PM PDT on July 04, 2015 (GMT -0700)
Bonlinda Lane | | Change Station
CLOSE
Current Station
Personal Weather Station
Location: Williams, OR
Elevation: 1542 ft
Nearby Weather Stations
Active Advisory: Heat Advisory

Elev 1542 ft 42.20 °N, 123.30 °W | Updated 6 minutes ago

Clear
Clear
100.0 °F
Feels Like 100 °F
N
2.0
Wind Variable Wind from SSW
Gusts 4.0 mph

Today
High -- | Low -- °F
--% Chance of Precip.
Yesterday
High -- | Low -- °F
Precip. -- in
5:42 AM 8:52 PM
Waning Gibbous, 89% visible
Pressure 29.72 in
Visibility 10.0 miles
Clouds Clear
Heat Index 100 °F
Dew Point 58 °F
Humidity 25%
Rainfall 0.00 in
Snow Depth Not available.
UV 10 out of 12
Pollen 7.00 out of 12
Air Quality Not available.
Flu Activity Not available.
METAR KMFR 042153Z 36007KT 310V020 10SM CLR 38/05 A2977 RMK AO2 SLP063 T03830050

More Conditions Fewer Conditions

Pressure 29.72 in
Visibility 10.0 miles
Clouds Clear
Heat Index 100 °F
Dew Point 58 °F
Humidity 25%
Rainfall 0.00 in
Snow Depth Not available.
UV 10 out of 12
Pollen 7.00 out of 12
Air Quality Not available.
Flu Activity Not available.
METAR KMFR 042153Z 36007KT 310V020 10SM CLR 38/05 A2977 RMK AO2 SLP063 T03830050

More Conditions Fewer Conditions

10-Day Weather Forecast

×

Almanac

Astronomy

Jul. 04, 2015 Rise Set
Actual Time
Civil Twilight
Nautical Twilight
Astronomical Twilight
Moon
Length of Visible Light
Length of Day
Tomorrow will be .
, % of the Moon is Illuminated

Today's Extremes

State Highs State Lows

Community

WunderPhotos

Upload Photos

1,835,105 photos uploaded!

WunderBlogs® & News

Nearby

Air Quality

  Air Quality AQ Index Pollutant
Not available.

Snow Depth

Station Depth Elevation

Earthquake Activity

City Distance Mag. Time & Date
Minimum magnitude displayed is 2.5.

Coastal Water Temperatures

Place Temperature

Stations

Nearby Weather Stations

Station Location Temp. Windchill Dew Point Humidity Wind Precip. Elev Updated Type
                   
Heat Advisory
Statement as of 3:07 PM PDT on July 04, 2015

... Heat advisory remains in effect until 11 PM PDT this evening...

A heat advisory remains in effect until 11 PM PDT this evening.

* Temperature: high temperatures 95 to 105 with overnight lows
65 to 70.

* Locations include: Grants Pass... Cave Junction... Medford...
Ashland... Etna... Fort Jones... Greenview... Yreka... Weed.

* Impacts: there is higher risk for heat exhaustion and heat
stroke. Those who are elderly... sick... or Young are more
susceptible to heat related illnesses.

* View the hazard area in detail at
http://weather.Gov/Medford/hazard

Precautionary/preparedness actions...

* drink plenty of water and seek shade.

* Use caution near area rivers... which are cold and can have
strong currents... and be sure to wear a life jacket.

* Take plenty of rest breaks.

* Do not leave pets or children in automobiles for any length
of time.



Sk